sensor_id;sensor_type;location;lat;lon;timestamp;pressure;altitude;pressure_sealevel;temperature;humidity
60258;BME280;46115;44.484;11.314;2023-12-22T00:02:47;98800.13;;;7.45;67.38
60258;BME280;46115;44.484;11.314;2023-12-22T00:06:49;98788.22;;;7.26;68.12
60258;BME280;46115;44.484;11.314;2023-12-22T00:10:54;98783.94;;;7.93;65.92
60258;BME280;46115;44.484;11.314;2023-12-22T00:14:57;98757.56;;;7.53;67.22
60258;BME280;46115;44.484;11.314;2023-12-22T00:18:59;98728.38;;;7.85;66.43
60258;BME280;46115;44.484;11.314;2023-12-22T00:23:01;98729.09;;;7.33;68.69
60258;BME280;46115;44.484;11.314;2023-12-22T00:27:05;98719.19;;;8.17;65.36
60258;BME280;46115;44.484;11.314;2023-12-22T00:31:07;98717.47;;;8.43;64.68
60258;BME280;46115;44.484;11.314;2023-12-22T00:35:10;98730.44;;;8.46;64.33
60258;BME280;46115;44.484;11.314;2023-12-22T00:39:12;98727.19;;;8.68;66.81
60258;BME280;46115;44.484;11.314;2023-12-22T00:43:16;98692.28;;;9.02;70.62
60258;BME280;46115;44.484;11.314;2023-12-22T00:47:18;98674.75;;;9.62;69.95
60258;BME280;46115;44.484;11.314;2023-12-22T00:51:21;98677.06;;;9.90;69.69
60258;BME280;46115;44.484;11.314;2023-12-22T00:55:23;98668.09;;;10.04;69.25
60258;BME280;46115;44.484;11.314;2023-12-22T00:59:27;98673.94;;;10.20;69.42
60258;BME280;46115;44.484;11.314;2023-12-22T01:03:29;98675.81;;;10.42;69.27
60258;BME280;46115;44.484;11.314;2023-12-22T01:07:31;98685.19;;;10.57;69.15
60258;BME280;46115;44.484;11.314;2023-12-22T01:11:34;98656.13;;;10.69;68.32
60258;BME280;46115;44.484;11.314;2023-12-22T01:15:37;98650.00;;;10.68;68.60
60258;BME280;46115;44.484;11.314;2023-12-22T01:19:40;98685.44;;;10.77;68.74
60258;BME280;46115;44.484;11.314;2023-12-22T01:23:43;98688.91;;;11.00;67.26
60258;BME280;46115;44.484;11.314;2023-12-22T01:27:45;98700.09;;;11.03;66.65
60258;BME280;46115;44.484;11.314;2023-12-22T01:31:50;98702.84;;;11.02;67.11
60258;BME280;46115;44.484;11.314;2023-12-22T01:35:52;98708.16;;;11.13;67.51
60258;BME280;46115;44.484;11.314;2023-12-22T01:39:55;98696.63;;;11.14;66.79
60258;BME280;46115;44.484;11.314;2023-12-22T01:43:57;98696.63;;;11.14;66.80
60258;BME280;46115;44.484;11.314;2023-12-22T01:48:02;98687.69;;;11.26;66.62
60258;BME280;46115;44.484;11.314;2023-12-22T01:52:05;98692.97;;;11.37;64.46
60258;BME280;46115;44.484;11.314;2023-12-22T01:56:08;98675.28;;;11.38;64.65
60258;BME280;46115;44.484;11.314;2023-12-22T02:00:12;98686.00;;;11.47;65.04
60258;BME280;46115;44.484;11.314;2023-12-22T02:04:16;98687.00;;;11.67;64.26
60258;BME280;46115;44.484;11.314;2023-12-22T02:08:18;98673.97;;;11.86;62.00
60258;BME280;46115;44.484;11.314;2023-12-22T02:12:22;98666.28;;;11.72;63.23
60258;BME280;46115;44.484;11.314;2023-12-22T02:16:31;98653.78;;;12.06;59.56
60258;BME280;46115;44.484;11.314;2023-12-22T02:20:36;98654.22;;;12.11;59.94
60258;BME280;46115;44.484;11.314;2023-12-22T02:24:41;98661.03;;;12.76;54.12
60258;BME280;46115;44.484;11.314;2023-12-22T02:28:46;98671.88;;;13.25;50.15
60258;BME280;46115;44.484;11.314;2023-12-22T02:32:51;98678.66;;;13.77;46.71
60258;BME280;46115;44.484;11.314;2023-12-22T02:36:57;98666.91;;;13.70;47.07
60258;BME280;46115;44.484;11.314;2023-12-22T02:41:02;98662.56;;;13.59;47.05
60258;BME280;46115;44.484;11.314;2023-12-22T02:45:05;98659.50;;;14.31;43.86
60258;BME280;46115;44.484;11.314;2023-12-22T02:49:08;98653.75;;;14.17;44.10
60258;BME280;46115;44.484;11.314;2023-12-22T02:53:10;98629.63;;;14.66;41.38
60258;BME280;46115;44.484;11.314;2023-12-22T02:57:14;98660.69;;;14.66;41.48
60258;BME280;46115;44.484;11.314;2023-12-22T03:01:17;98654.94;;;15.08;39.58
60258;BME280;46115;44.484;11.314;2023-12-22T03:05:19;98648.13;;;15.23;38.60
60258;BME280;46115;44.484;11.314;2023-12-22T03:09:22;98631.91;;;14.89;38.85
60258;BME280;46115;44.484;11.314;2023-12-22T03:13:25;98648.75;;;15.35;37.92
60258;BME280;46115;44.484;11.314;2023-12-22T03:17:28;98641.63;;;15.35;38.14
60258;BME280;46115;44.484;11.314;2023-12-22T03:21:30;98649.53;;;15.45;37.45
60258;BME280;46115;44.484;11.314;2023-12-22T03:25:33;98657.06;;;15.32;37.94
60258;BME280;46115;44.484;11.314;2023-12-22T03:29:36;98658.06;;;15.21;37.69
60258;BME280;46115;44.484;11.314;2023-12-22T03:33:39;98668.47;;;15.42;37.23
60258;BME280;46115;44.484;11.314;2023-12-22T03:37:41;98668.09;;;15.54;35.77
60258;BME280;46115;44.484;11.314;2023-12-22T03:41:44;98684.75;;;15.66;36.19
60258;BME280;46115;44.484;11.314;2023-12-22T03:45:48;98672.28;;;15.57;35.60
60258;BME280;46115;44.484;11.314;2023-12-22T03:49:50;98685.81;;;15.46;35.74
60258;BME280;46115;44.484;11.314;2023-12-22T03:53:53;98687.88;;;15.24;36.04
60258;BME280;46115;44.484;11.314;2023-12-22T03:57:55;98678.81;;;15.45;34.91
60258;BME280;46115;44.484;11.314;2023-12-22T04:01:59;98673.28;;;15.56;34.09
60258;BME280;46115;44.484;11.314;2023-12-22T04:06:02;98678.53;;;15.48;35.18
60258;BME280;46115;44.484;11.314;2023-12-22T04:10:06;98673.88;;;15.32;34.81
60258;BME280;46115;44.484;11.314;2023-12-22T04:14:08;98676.00;;;15.19;35.12
60258;BME280;46115;44.484;11.314;2023-12-22T04:18:12;98689.28;;;15.28;33.97
60258;BME280;46115;44.484;11.314;2023-12-22T04:22:15;98705.69;;;15.51;33.19
60258;BME280;46115;44.484;11.314;2023-12-22T04:26:17;98700.56;;;15.40;33.19
60258;BME280;46115;44.484;11.314;2023-12-22T04:30:19;98711.00;;;15.24;34.02
60258;BME280;46115;44.484;11.314;2023-12-22T04:34:23;98708.50;;;15.22;33.57
60258;BME280;46115;44.484;11.314;2023-12-22T04:38:26;98701.03;;;15.26;33.20
60258;BME280;46115;44.484;11.314;2023-12-22T04:42:28;98702.81;;;15.08;33.72
60258;BME280;46115;44.484;11.314;2023-12-22T04:46:31;98723.78;;;15.48;32.49
60258;BME280;46115;44.484;11.314;2023-12-22T04:50:34;98724.69;;;15.39;32.81
60258;BME280;46115;44.484;11.314;2023-12-22T04:54:37;98727.66;;;15.36;32.80
60258;BME280;46115;44.484;11.314;2023-12-22T04:58:40;98744.63;;;15.25;33.40
60258;BME280;46115;44.484;11.314;2023-12-22T05:02:42;98735.44;;;15.10;33.12
60258;BME280;46115;44.484;11.314;2023-12-22T05:06:46;98746.19;;;15.27;32.99
60258;BME280;46115;44.484;11.314;2023-12-22T05:10:48;98744.28;;;15.10;32.78
60258;BME280;46115;44.484;11.314;2023-12-22T05:14:51;98753.09;;;15.11;33.41
60258;BME280;46115;44.484;11.314;2023-12-22T05:18:53;98764.03;;;15.08;33.34
60258;BME280;46115;44.484;11.314;2023-12-22T05:22:57;98760.72;;;14.96;32.69
60258;BME280;46115;44.484;11.314;2023-12-22T05:27:00;98759.09;;;15.13;32.59
60258;BME280;46115;44.484;11.314;2023-12-22T05:31:02;98775.41;;;15.00;32.98
60258;BME280;46115;44.484;11.314;2023-12-22T05:35:05;98772.88;;;14.98;32.24
60258;BME280;46115;44.484;11.314;2023-12-22T05:39:09;98785.31;;;15.08;32.36
60258;BME280;46115;44.484;11.314;2023-12-22T05:43:12;98791.78;;;14.95;32.98
60258;BME280;46115;44.484;11.314;2023-12-22T05:47:14;98794.94;;;15.18;31.89
60258;BME280;46115;44.484;11.314;2023-12-22T05:51:16;98804.22;;;15.05;32.04
60258;BME280;46115;44.484;11.314;2023-12-22T05:55:20;98766.56;;;14.90;31.71
60258;BME280;46115;44.484;11.314;2023-12-22T05:59:23;98804.09;;;14.87;32.50
60258;BME280;46115;44.484;11.314;2023-12-22T06:03:25;98805.34;;;15.02;32.00
60258;BME280;46115;44.484;11.314;2023-12-22T06:07:27;98793.31;;;14.98;31.49
60258;BME280;46115;44.484;11.314;2023-12-22T06:11:31;98802.44;;;14.95;31.52
60258;BME280;46115;44.484;11.314;2023-12-22T06:15:34;98809.56;;;14.95;31.51
60258;BME280;46115;44.484;11.314;2023-12-22T06:19:36;98809.69;;;15.03;31.37
60258;BME280;46115;44.484;11.314;2023-12-22T06:23:39;98794.81;;;15.10;31.21
60258;BME280;46115;44.484;11.314;2023-12-22T06:27:45;98801.72;;;15.03;31.28
60258;BME280;46115;44.484;11.314;2023-12-22T06:31:47;98782.00;;;14.96;31.20
60258;BME280;46115;44.484;11.314;2023-12-22T06:35:51;98808.13;;;15.10;31.78
60258;BME280;46115;44.484;11.314;2023-12-22T06:39:54;98806.31;;;15.11;30.72
60258;BME280;46115;44.484;11.314;2023-12-22T06:43:58;98799.31;;;15.10;30.60
60258;BME280;46115;44.484;11.314;2023-12-22T06:48:02;98809.41;;;15.06;30.95
60258;BME280;46115;44.484;11.314;2023-12-22T06:52:05;98814.06;;;15.41;29.89
60258;BME280;46115;44.484;11.314;2023-12-22T06:56:15;98807.69;;;15.15;30.32
60258;BME280;46115;44.484;11.314;2023-12-22T07:00:19;98809.69;;;15.03;31.15
60258;BME280;46115;44.484;11.314;2023-12-22T07:04:22;98813.16;;;15.13;30.65
60258;BME280;46115;44.484;11.314;2023-12-22T07:08:24;98821.28;;;15.12;31.83
60258;BME280;46115;44.484;11.314;2023-12-22T07:12:26;98821.94;;;15.23;30.50
60258;BME280;46115;44.484;11.314;2023-12-22T07:16:30;98834.84;;;15.28;30.11
60258;BME280;46115;44.484;11.314;2023-12-22T07:20:33;98849.81;;;15.39;29.96
60258;BME280;46115;44.484;11.314;2023-12-22T07:24:36;98863.47;;;15.53;29.28
60258;BME280;46115;44.484;11.314;2023-12-22T07:28:38;98875.03;;;15.25;31.07
60258;BME280;46115;44.484;11.314;2023-12-22T07:32:43;98884.84;;;15.24;30.75
60258;BME280;46115;44.484;11.314;2023-12-22T07:36:46;98891.13;;;15.43;29.80
60258;BME280;46115;44.484;11.314;2023-12-22T07:40:48;98898.00;;;15.45;29.79
60258;BME280;46115;44.484;11.314;2023-12-22T07:44:50;98908.13;;;15.32;29.65
60258;BME280;46115;44.484;11.314;2023-12-22T07:48:54;98913.09;;;15.74;28.85
60258;BME280;46115;44.484;11.314;2023-12-22T07:52:57;98926.50;;;15.82;28.52
60258;BME280;46115;44.484;11.314;2023-12-22T07:56:59;98941.66;;;16.46;27.98
60258;BME280;46115;44.484;11.314;2023-12-22T08:01:02;98942.50;;;16.74;27.28
60258;BME280;46115;44.484;11.314;2023-12-22T08:05:06;98943.34;;;17.10;27.38
60258;BME280;46115;44.484;11.314;2023-12-22T08:09:09;98953.72;;;17.57;26.62
60258;BME280;46115;44.484;11.314;2023-12-22T08:13:11;98941.34;;;17.73;26.57
60258;BME280;46115;44.484;11.314;2023-12-22T08:17:13;98956.47;;;18.17;25.75
60258;BME280;46115;44.484;11.314;2023-12-22T08:21:17;98957.16;;;18.27;25.67
60258;BME280;46115;44.484;11.314;2023-12-22T08:25:20;98964.03;;;18.63;25.21
60258;BME280;46115;44.484;11.314;2023-12-22T08:29:22;98955.28;;;19.44;24.60
60258;BME280;46115;44.484;11.314;2023-12-22T08:33:25;98957.44;;;19.81;24.20
60258;BME280;46115;44.484;11.314;2023-12-22T08:37:29;98955.41;;;20.39;23.56
60258;BME280;46115;44.484;11.314;2023-12-22T08:41:31;98961.22;;;20.03;23.58
60258;BME280;46115;44.484;11.314;2023-12-22T08:45:37;98971.75;;;20.68;22.88
60258;BME280;46115;44.484;11.314;2023-12-22T08:49:39;98986.63;;;20.79;22.30
60258;BME280;46115;44.484;11.314;2023-12-22T08:53:43;99002.41;;;22.99;20.66
60258;BME280;46115;44.484;11.314;2023-12-22T08:57:45;98966.69;;;23.33;20.84
60258;BME280;46115;44.484;11.314;2023-12-22T09:01:48;99007.44;;;24.50;19.25
60258;BME280;46115;44.484;11.314;2023-12-22T09:05:50;99026.47;;;24.08;19.00
60258;BME280;46115;44.484;11.314;2023-12-22T09:09:54;99036.50;;;24.20;19.46
60258;BME280;46115;44.484;11.314;2023-12-22T09:13:56;99042.50;;;23.09;19.32
60258;BME280;46115;44.484;11.314;2023-12-22T09:17:59;99025.50;;;21.91;21.25
60258;BME280;46115;44.484;11.314;2023-12-22T09:22:01;99044.00;;;20.31;22.61
60258;BME280;46115;44.484;11.314;2023-12-22T09:26:05;99047.34;;;20.49;23.45
60258;BME280;46115;44.484;11.314;2023-12-22T09:30:08;99063.28;;;20.34;22.66
60258;BME280;46115;44.484;11.314;2023-12-22T09:34:11;99064.00;;;20.04;23.59
60258;BME280;46115;44.484;11.314;2023-12-22T09:38:13;99085.44;;;20.12;23.61
60258;BME280;46115;44.484;11.314;2023-12-22T09:42:17;99054.28;;;19.86;24.26
60258;BME280;46115;44.484;11.314;2023-12-22T09:46:20;99062.66;;;19.75;24.25
60258;BME280;46115;44.484;11.314;2023-12-22T09:50:23;99069.00;;;19.50;24.66
60258;BME280;46115;44.484;11.314;2023-12-22T09:54:26;99066.69;;;19.55;24.81
60258;BME280;46115;44.484;11.314;2023-12-22T09:58:31;99036.97;;;19.32;24.97
60258;BME280;46115;44.484;11.314;2023-12-22T10:02:36;99041.84;;;19.37;25.06
60258;BME280;46115;44.484;11.314;2023-12-22T10:06:39;99051.88;;;19.35;24.93
60258;BME280;46115;44.484;11.314;2023-12-22T10:10:42;99052.88;;;19.25;24.74
60258;BME280;46115;44.484;11.314;2023-12-22T10:14:47;99042.66;;;19.21;25.51
60258;BME280;46115;44.484;11.314;2023-12-22T10:18:49;99026.19;;;18.99;25.97
60258;BME280;46115;44.484;11.314;2023-12-22T10:22:52;99029.69;;;18.92;27.07
60258;BME280;46115;44.484;11.314;2023-12-22T10:26:55;99033.53;;;18.89;26.76
60258;BME280;46115;44.484;11.314;2023-12-22T10:30:58;99019.47;;;18.79;27.02
60258;BME280;46115;44.484;11.314;2023-12-22T10:35:07;99001.56;;;18.80;27.44
60258;BME280;46115;44.484;11.314;2023-12-22T10:39:10;99017.56;;;18.72;27.36
60258;BME280;46115;44.484;11.314;2023-12-22T10:43:13;99002.63;;;18.61;27.65
60258;BME280;46115;44.484;11.314;2023-12-22T10:47:17;98992.56;;;18.55;27.59
60258;BME280;46115;44.484;11.314;2023-12-22T10:51:19;98995.16;;;18.73;27.78
60258;BME280;46115;44.484;11.314;2023-12-22T10:55:22;98987.06;;;18.56;27.82
60258;BME280;46115;44.484;11.314;2023-12-22T10:59:28;98986.06;;;18.57;27.44
60258;BME280;46115;44.484;11.314;2023-12-22T11:03:33;98988.06;;;18.55;27.87
60258;BME280;46115;44.484;11.314;2023-12-22T11:07:38;98964.47;;;18.59;26.89
60258;BME280;46115;44.484;11.314;2023-12-22T11:11:45;98960.13;;;18.50;27.02
60258;BME280;46115;44.484;11.314;2023-12-22T11:15:49;98970.47;;;18.45;26.62
60258;BME280;46115;44.484;11.314;2023-12-22T11:19:56;98951.50;;;18.38;26.60
60258;BME280;46115;44.484;11.314;2023-12-22T11:23:59;98976.00;;;18.51;26.20
60258;BME280;46115;44.484;11.314;2023-12-22T11:28:02;98959.41;;;18.39;31.29
60258;BME280;46115;44.484;11.314;2023-12-22T11:32:07;98956.53;;;18.33;27.95
60258;BME280;46115;44.484;11.314;2023-12-22T11:36:13;98938.97;;;18.38;29.99
60258;BME280;46115;44.484;11.314;2023-12-22T11:40:16;98923.94;;;18.37;28.59
60258;BME280;46115;44.484;11.314;2023-12-22T11:44:19;98935.28;;;18.31;27.17
60258;BME280;46115;44.484;11.314;2023-12-22T11:48:22;98913.56;;;18.34;26.61
60258;BME280;46115;44.484;11.314;2023-12-22T11:52:27;98926.81;;;18.44;27.15
60258;BME280;46115;44.484;11.314;2023-12-22T11:56:30;98922.91;;;18.30;27.33
60258;BME280;46115;44.484;11.314;2023-12-22T12:00:38;98919.41;;;18.38;26.75
60258;BME280;46115;44.484;11.314;2023-12-22T12:04:40;98922.59;;;18.33;26.51
60258;BME280;46115;44.484;11.314;2023-12-22T12:08:44;98925.25;;;18.33;27.27
60258;BME280;46115;44.484;11.314;2023-12-22T12:12:47;98918.91;;;18.34;27.44
60258;BME280;46115;44.484;11.314;2023-12-22T12:16:49;98921.41;;;18.36;27.16
60258;BME280;46115;44.484;11.314;2023-12-22T12:20:52;98932.94;;;18.28;27.53
60258;BME280;46115;44.484;11.314;2023-12-22T12:24:56;98932.09;;;18.28;27.13
60258;BME280;46115;44.484;11.314;2023-12-22T12:28:58;98922.41;;;18.27;27.81
60258;BME280;46115;44.484;11.314;2023-12-22T12:33:06;98925.84;;;18.11;27.68
60258;BME280;46115;44.484;11.314;2023-12-22T12:37:09;98932.56;;;18.15;28.14
60258;BME280;46115;44.484;11.314;2023-12-22T12:41:15;98944.41;;;18.13;28.32
60258;BME280;46115;44.484;11.314;2023-12-22T12:45:22;98938.75;;;18.16;28.27
60258;BME280;46115;44.484;11.314;2023-12-22T12:49:24;98933.97;;;18.01;28.37
60258;BME280;46115;44.484;11.314;2023-12-22T12:53:31;98940.88;;;18.04;28.60
60258;BME280;46115;44.484;11.314;2023-12-22T12:57:35;98965.22;;;18.01;28.69
60258;BME280;46115;44.484;11.314;2023-12-22T13:01:38;98959.72;;;18.02;28.21
60258;BME280;46115;44.484;11.314;2023-12-22T13:05:41;98968.00;;;17.91;29.03
60258;BME280;46115;44.484;11.314;2023-12-22T13:09:43;98973.56;;;17.98;28.55
60258;BME280;46115;44.484;11.314;2023-12-22T13:13:48;98984.56;;;17.95;28.69
60258;BME280;46115;44.484;11.314;2023-12-22T13:17:50;98993.91;;;17.91;28.98
60258;BME280;46115;44.484;11.314;2023-12-22T13:21:53;98968.25;;;17.72;29.34
60258;BME280;46115;44.484;11.314;2023-12-22T13:25:57;98984.88;;;17.92;28.99
60258;BME280;46115;44.484;11.314;2023-12-22T13:30:01;98986.94;;;17.72;30.07
60258;BME280;46115;44.484;11.314;2023-12-22T13:34:03;98980.44;;;17.74;29.81
60258;BME280;46115;44.484;11.314;2023-12-22T13:38:10;98975.31;;;17.81;29.80
60258;BME280;46115;44.484;11.314;2023-12-22T13:42:16;98982.31;;;17.82;29.86
60258;BME280;46115;44.484;11.314;2023-12-22T13:46:20;98973.88;;;17.69;29.71
60258;BME280;46115;44.484;11.314;2023-12-22T13:50:22;98974.25;;;17.74;30.03
60258;BME280;46115;44.484;11.314;2023-12-22T13:54:31;98965.44;;;17.82;29.37
60258;BME280;46115;44.484;11.314;2023-12-22T13:58:43;98957.44;;;17.64;29.80
60258;BME280;46115;44.484;11.314;2023-12-22T14:02:48;98957.44;;;17.64;29.05
60258;BME280;46115;44.484;11.314;2023-12-22T14:06:51;98934.06;;;17.66;29.07
60258;BME280;46115;44.484;11.314;2023-12-22T14:10:54;98940.53;;;17.55;29.24
60258;BME280;46115;44.484;11.314;2023-12-22T14:14:56;98937.00;;;17.72;29.09
60258;BME280;46115;44.484;11.314;2023-12-22T14:19:00;98937.56;;;17.66;29.11
60258;BME280;46115;44.484;11.314;2023-12-22T14:23:03;98935.38;;;17.62;28.63
60258;BME280;46115;44.484;11.314;2023-12-22T14:27:05;98937.16;;;17.53;29.29
60258;BME280;46115;44.484;11.314;2023-12-22T14:31:07;98932.41;;;17.65;28.92
60258;BME280;46115;44.484;11.314;2023-12-22T14:35:11;98936.22;;;17.62;28.76
60258;BME280;46115;44.484;11.314;2023-12-22T14:39:14;98927.63;;;17.51;28.49
60258;BME280;46115;44.484;11.314;2023-12-22T14:43:16;98936.81;;;17.48;29.13
60258;BME280;46115;44.484;11.314;2023-12-22T14:47:19;98947.34;;;17.50;28.51
60258;BME280;46115;44.484;11.314;2023-12-22T14:51:22;98938.94;;;17.44;29.00
60258;BME280;46115;44.484;11.314;2023-12-22T14:55:25;98936.28;;;17.27;29.22
60258;BME280;46115;44.484;11.314;2023-12-22T14:59:27;98937.06;;;17.37;29.06
60258;BME280;46115;44.484;11.314;2023-12-22T15:03:30;98937.22;;;17.35;28.80
60258;BME280;46115;44.484;11.314;2023-12-22T15:07:33;98933.84;;;17.33;28.83
60258;BME280;46115;44.484;11.314;2023-12-22T15:11:40;98928.59;;;17.24;29.24
60258;BME280;46115;44.484;11.314;2023-12-22T15:15:43;98927.22;;;17.20;29.10
60258;BME280;46115;44.484;11.314;2023-12-22T15:19:45;98923.28;;;17.06;29.42
60258;BME280;46115;44.484;11.314;2023-12-22T15:23:49;98927.16;;;17.11;30.19
60258;BME280;46115;44.484;11.314;2023-12-22T15:27:52;98918.16;;;16.95;30.30
60258;BME280;46115;44.484;11.314;2023-12-22T15:31:54;98923.66;;;16.93;30.77
60258;BME280;46115;44.484;11.314;2023-12-22T15:36:00;98928.91;;;16.85;30.34
60258;BME280;46115;44.484;11.314;2023-12-22T15:40:06;98931.91;;;16.82;30.48
60258;BME280;46115;44.484;11.314;2023-12-22T15:44:10;98944.72;;;16.78;30.35
60258;BME280;46115;44.484;11.314;2023-12-22T15:48:14;98921.53;;;16.79;29.79
60258;BME280;46115;44.484;11.314;2023-12-22T15:52:16;98949.75;;;16.81;30.55
60258;BME280;46115;44.484;11.314;2023-12-22T23:06:08;99018.84;;;14.04;43.89
60258;BME280;46115;44.484;11.314;2023-12-22T23:10:11;99020.44;;;14.17;42.30
60258;BME280;46115;44.484;11.314;2023-12-22T23:14:13;99020.97;;;14.41;40.71
60258;BME280;46115;44.484;11.314;2023-12-22T23:18:16;99022.34;;;14.66;39.85
60258;BME280;46115;44.484;11.314;2023-12-22T23:22:19;99017.16;;;14.64;40.13
60258;BME280;46115;44.484;11.314;2023-12-22T23:26:21;99021.09;;;14.60;40.99
60258;BME280;46115;44.484;11.314;2023-12-22T23:30:23;99031.84;;;14.59;41.75
60258;BME280;46115;44.484;11.314;2023-12-22T23:34:26;99029.56;;;14.45;42.62
60258;BME280;46115;44.484;11.314;2023-12-22T23:38:30;99027.09;;;14.62;42.58
60258;BME280;46115;44.484;11.314;2023-12-22T23:42:32;99029.41;;;14.46;43.02
60258;BME280;46115;44.484;11.314;2023-12-22T23:46:34;99033.47;;;14.20;45.14
60258;BME280;46115;44.484;11.314;2023-12-22T23:50:37;99029.63;;;14.03;45.54
60258;BME280;46115;44.484;11.314;2023-12-22T23:54:40;99035.38;;;13.87;46.44
60258;BME280;46115;44.484;11.314;2023-12-22T23:58:43;99018.75;;;13.64;46.58
